sensor_id;sensor_type;location;lat;lon;timestamp;pressure;altitude;pressure_sealevel;temperature
19282;BMP180;9774;52.034;5.342;2023-03-25T00:00:50;99916.00;;;15.70
19282;BMP180;9774;52.034;5.342;2023-03-25T00:03:22;99916.00;;;15.70
19282;BMP180;9774;52.034;5.342;2023-03-25T00:05:52;99917.00;;;15.70
19282;BMP180;9774;52.034;5.342;2023-03-25T00:08:21;99932.00;;;15.70
19282;BMP180;9774;52.034;5.342;2023-03-25T00:10:51;99923.00;;;15.70
19282;BMP180;9774;52.034;5.342;2023-03-25T00:13:20;99920.00;;;15.70
19282;BMP180;9774;52.034;5.342;2023-03-25T00:15:49;99907.00;;;15.70
19282;BMP180;9774;52.034;5.342;2023-03-25T00:18:19;99914.00;;;15.70
19282;BMP180;9774;52.034;5.342;2023-03-25T00:20:50;99903.00;;;15.70
19282;BMP180;9774;52.034;5.342;2023-03-25T00:23:19;99906.00;;;15.70
19282;BMP180;9774;52.034;5.342;2023-03-25T00:25:47;99906.00;;;15.70
19282;BMP180;9774;52.034;5.342;2023-03-25T00:28:17;99918.00;;;15.60
19282;BMP180;9774;52.034;5.342;2023-03-25T00:30:45;99909.00;;;15.60
19282;BMP180;9774;52.034;5.342;2023-03-25T00:33:12;99915.00;;;15.60
19282;BMP180;9774;52.034;5.342;2023-03-25T00:35:43;99907.00;;;15.60
19282;BMP180;9774;52.034;5.342;2023-03-25T00:38:10;99905.00;;;15.60
19282;BMP180;9774;52.034;5.342;2023-03-25T00:40:39;99906.00;;;15.60
19282;BMP180;9774;52.034;5.342;2023-03-25T00:43:06;99912.00;;;15.60
19282;BMP180;9774;52.034;5.342;2023-03-25T00:45:34;99912.00;;;15.60
19282;BMP180;9774;52.034;5.342;2023-03-25T00:48:01;99905.00;;;15.60
19282;BMP180;9774;52.034;5.342;2023-03-25T00:50:29;99912.00;;;15.50
19282;BMP180;9774;52.034;5.342;2023-03-25T00:52:56;99892.00;;;15.50
19282;BMP180;9774;52.034;5.342;2023-03-25T00:55:23;99898.00;;;15.50
19282;BMP180;9774;52.034;5.342;2023-03-25T00:57:52;99906.00;;;15.50
19282;BMP180;9774;52.034;5.342;2023-03-25T01:00:19;99906.00;;;15.50
19282;BMP180;9774;52.034;5.342;2023-03-25T01:02:48;99904.00;;;15.50
19282;BMP180;9774;52.034;5.342;2023-03-25T01:05:19;99911.00;;;15.50
19282;BMP180;9774;52.034;5.342;2023-03-25T01:07:47;99917.00;;;15.50
19282;BMP180;9774;52.034;5.342;2023-03-25T01:10:17;99910.00;;;15.50
19282;BMP180;9774;52.034;5.342;2023-03-25T01:12:44;99910.00;;;15.50
19282;BMP180;9774;52.034;5.342;2023-03-25T01:15:13;99912.00;;;15.50
19282;BMP180;9774;52.034;5.342;2023-03-25T01:17:40;99921.00;;;15.50
19282;BMP180;9774;52.034;5.342;2023-03-25T01:20:08;99914.00;;;15.50
19282;BMP180;9774;52.034;5.342;2023-03-25T01:22:36;99919.00;;;15.50
19282;BMP180;9774;52.034;5.342;2023-03-25T01:25:03;99912.00;;;15.50
19282;BMP180;9774;52.034;5.342;2023-03-25T01:27:31;99904.00;;;15.50
19282;BMP180;9774;52.034;5.342;2023-03-25T01:29:59;99910.00;;;15.50
19282;BMP180;9774;52.034;5.342;2023-03-25T01:32:28;99908.00;;;15.50
19282;BMP180;9774;52.034;5.342;2023-03-25T01:34:55;99902.00;;;15.50
19282;BMP180;9774;52.034;5.342;2023-03-25T01:37:22;99903.00;;;15.50
19282;BMP180;9774;52.034;5.342;2023-03-25T01:39:50;99903.00;;;15.50
19282;BMP180;9774;52.034;5.342;2023-03-25T01:42:17;99898.00;;;15.50
19282;BMP180;9774;52.034;5.342;2023-03-25T01:45:12;99901.00;;;15.40
19282;BMP180;9774;52.034;5.342;2023-03-25T01:47:41;99887.00;;;15.50
19282;BMP180;9774;52.034;5.342;2023-03-25T01:50:09;99894.00;;;15.50
19282;BMP180;9774;52.034;5.342;2023-03-25T01:52:42;99894.00;;;15.50
19282;BMP180;9774;52.034;5.342;2023-03-25T01:55:10;99893.00;;;15.40
19282;BMP180;9774;52.034;5.342;2023-03-25T01:57:39;99890.00;;;15.40
19282;BMP180;9774;52.034;5.342;2023-03-25T02:00:10;99895.00;;;15.40
19282;BMP180;9774;52.034;5.342;2023-03-25T02:02:39;99903.00;;;15.40
19282;BMP180;9774;52.034;5.342;2023-03-25T02:05:11;99898.00;;;15.40
19282;BMP180;9774;52.034;5.342;2023-03-25T02:07:44;99889.00;;;15.40
19282;BMP180;9774;52.034;5.342;2023-03-25T02:10:14;99889.00;;;15.40
19282;BMP180;9774;52.034;5.342;2023-03-25T02:12:42;99891.00;;;15.30
19282;BMP180;9774;52.034;5.342;2023-03-25T02:15:12;99900.00;;;15.30
19282;BMP180;9774;52.034;5.342;2023-03-25T02:17:59;99899.00;;;15.20
19282;BMP180;9774;52.034;5.342;2023-03-25T02:20:56;99894.00;;;15.20
19282;BMP180;9774;52.034;5.342;2023-03-25T02:23:56;99892.00;;;15.10
19282;BMP180;9774;52.034;5.342;2023-03-25T02:29:53;99892.00;;;15.10
19282;BMP180;9774;52.034;5.342;2023-03-25T02:32:37;99897.00;;;15.00
19282;BMP180;9774;52.034;5.342;2023-03-25T02:35:29;99892.00;;;15.00
19282;BMP180;9774;52.034;5.342;2023-03-25T02:38:18;99888.00;;;14.90
19282;BMP180;9774;52.034;5.342;2023-03-25T02:40:54;99885.00;;;15.00
19282;BMP180;9774;52.034;5.342;2023-03-25T02:43:27;99889.00;;;15.00
19282;BMP180;9774;52.034;5.342;2023-03-25T02:45:59;99882.00;;;15.00
19282;BMP180;9774;52.034;5.342;2023-03-25T02:48:31;99890.00;;;15.00
19282;BMP180;9774;52.034;5.342;2023-03-25T02:51:04;99885.00;;;15.00
19282;BMP180;9774;52.034;5.342;2023-03-25T02:53:37;99881.00;;;15.00
19282;BMP180;9774;52.034;5.342;2023-03-25T02:56:07;99888.00;;;15.00
19282;BMP180;9774;52.034;5.342;2023-03-25T02:58:38;99891.00;;;15.00
19282;BMP180;9774;52.034;5.342;2023-03-25T03:01:06;99880.00;;;15.00
19282;BMP180;9774;52.034;5.342;2023-03-25T03:03:35;99880.00;;;15.00
19282;BMP180;9774;52.034;5.342;2023-03-25T03:06:04;99875.00;;;15.00
19282;BMP180;9774;52.034;5.342;2023-03-25T03:08:43;99871.00;;;14.90
19282;BMP180;9774;52.034;5.342;2023-03-25T03:11:18;99875.00;;;15.00
19282;BMP180;9774;52.034;5.342;2023-03-25T03:16:41;99870.00;;;15.00
19282;BMP180;9774;52.034;5.342;2023-03-25T03:19:21;99881.00;;;15.00
19282;BMP180;9774;52.034;5.342;2023-03-25T03:21:57;99858.00;;;15.00
19282;BMP180;9774;52.034;5.342;2023-03-25T03:24:30;99861.00;;;15.00
19282;BMP180;9774;52.034;5.342;2023-03-25T03:27:02;99879.00;;;15.00
19282;BMP180;9774;52.034;5.342;2023-03-25T03:29:35;99874.00;;;15.00
19282;BMP180;9774;52.034;5.342;2023-03-25T03:32:06;99868.00;;;15.00
19282;BMP180;9774;52.034;5.342;2023-03-25T03:34:39;99871.00;;;15.00
19282;BMP180;9774;52.034;5.342;2023-03-25T03:37:13;99862.00;;;15.00
19282;BMP180;9774;52.034;5.342;2023-03-25T03:39:44;99863.00;;;15.00
19282;BMP180;9774;52.034;5.342;2023-03-25T03:42:15;99858.00;;;15.00
19282;BMP180;9774;52.034;5.342;2023-03-25T03:44:48;99860.00;;;15.00
19282;BMP180;9774;52.034;5.342;2023-03-25T03:47:20;99860.00;;;15.00
19282;BMP180;9774;52.034;5.342;2023-03-25T03:49:53;99866.00;;;15.00
19282;BMP180;9774;52.034;5.342;2023-03-25T03:52:26;99849.00;;;15.00
19282;BMP180;9774;52.034;5.342;2023-03-25T03:55:00;99854.00;;;15.00
19282;BMP180;9774;52.034;5.342;2023-03-25T03:57:34;99846.00;;;15.00
19282;BMP180;9774;52.034;5.342;2023-03-25T04:00:06;99849.00;;;15.00
19282;BMP180;9774;52.034;5.342;2023-03-25T04:02:37;99843.00;;;15.00
19282;BMP180;9774;52.034;5.342;2023-03-25T04:05:07;99844.00;;;15.00
19282;BMP180;9774;52.034;5.342;2023-03-25T04:07:39;99845.00;;;15.00
19282;BMP180;9774;52.034;5.342;2023-03-25T04:10:13;99842.00;;;15.00
19282;BMP180;9774;52.034;5.342;2023-03-25T04:12:43;99843.00;;;15.00
19282;BMP180;9774;52.034;5.342;2023-03-25T04:15:12;99848.00;;;15.00
19282;BMP180;9774;52.034;5.342;2023-03-25T04:17:40;99850.00;;;15.00
19282;BMP180;9774;52.034;5.342;2023-03-25T04:20:12;99836.00;;;15.00
19282;BMP180;9774;52.034;5.342;2023-03-25T04:22:40;99838.00;;;15.00
19282;BMP180;9774;52.034;5.342;2023-03-25T04:25:12;99840.00;;;15.00
19282;BMP180;9774;52.034;5.342;2023-03-25T04:27:39;99835.00;;;15.00
19282;BMP180;9774;52.034;5.342;2023-03-25T04:30:11;99832.00;;;15.00
19282;BMP180;9774;52.034;5.342;2023-03-25T04:32:38;99844.00;;;15.00
19282;BMP180;9774;52.034;5.342;2023-03-25T04:35:06;99847.00;;;14.90
19282;BMP180;9774;52.034;5.342;2023-03-25T04:37:34;99840.00;;;14.90
19282;BMP180;9774;52.034;5.342;2023-03-25T04:40:02;99842.00;;;14.90
19282;BMP180;9774;52.034;5.342;2023-03-25T04:42:33;99847.00;;;14.80
19282;BMP180;9774;52.034;5.342;2023-03-25T04:45:02;99842.00;;;14.80
19282;BMP180;9774;52.034;5.342;2023-03-25T04:47:31;99849.00;;;14.80
19282;BMP180;9774;52.034;5.342;2023-03-25T04:49:58;99852.00;;;14.80
19282;BMP180;9774;52.034;5.342;2023-03-25T04:52:26;99857.00;;;14.70
19282;BMP180;9774;52.034;5.342;2023-03-25T04:54:54;99852.00;;;14.70
19282;BMP180;9774;52.034;5.342;2023-03-25T04:57:21;99846.00;;;14.70
19282;BMP180;9774;52.034;5.342;2023-03-25T04:59:50;99852.00;;;14.70
19282;BMP180;9774;52.034;5.342;2023-03-25T05:02:17;99849.00;;;14.70
19282;BMP180;9774;52.034;5.342;2023-03-25T05:04:45;99843.00;;;14.70
19282;BMP180;9774;52.034;5.342;2023-03-25T05:07:13;99860.00;;;14.70
19282;BMP180;9774;52.034;5.342;2023-03-25T05:09:41;99862.00;;;14.70
19282;BMP180;9774;52.034;5.342;2023-03-25T05:12:08;99870.00;;;14.70
19282;BMP180;9774;52.034;5.342;2023-03-25T05:14:36;99863.00;;;14.70
19282;BMP180;9774;52.034;5.342;2023-03-25T05:17:05;99854.00;;;14.60
19282;BMP180;9774;52.034;5.342;2023-03-25T05:19:32;99866.00;;;14.60
19282;BMP180;9774;52.034;5.342;2023-03-25T05:22:00;99857.00;;;14.60
19282;BMP180;9774;52.034;5.342;2023-03-25T05:24:29;99860.00;;;14.60
19282;BMP180;9774;52.034;5.342;2023-03-25T05:26:57;99857.00;;;14.50
19282;BMP180;9774;52.034;5.342;2023-03-25T05:29:27;99867.00;;;14.50
19282;BMP180;9774;52.034;5.342;2023-03-25T05:31:59;99876.00;;;14.50
19282;BMP180;9774;52.034;5.342;2023-03-25T05:34:28;99874.00;;;14.40
19282;BMP180;9774;52.034;5.342;2023-03-25T05:36:56;99884.00;;;14.40
19282;BMP180;9774;52.034;5.342;2023-03-25T05:39:23;99872.00;;;14.40
19282;BMP180;9774;52.034;5.342;2023-03-25T05:41:51;99873.00;;;14.40
19282;BMP180;9774;52.034;5.342;2023-03-25T05:44:20;99868.00;;;14.40
19282;BMP180;9774;52.034;5.342;2023-03-25T05:46:48;99879.00;;;14.40
19282;BMP180;9774;52.034;5.342;2023-03-25T05:49:15;99887.00;;;14.40
19282;BMP180;9774;52.034;5.342;2023-03-25T05:51:43;99879.00;;;14.40
19282;BMP180;9774;52.034;5.342;2023-03-25T05:54:11;99886.00;;;14.40
19282;BMP180;9774;52.034;5.342;2023-03-25T05:56:38;99885.00;;;14.40
19282;BMP180;9774;52.034;5.342;2023-03-25T05:59:06;99888.00;;;14.40
19282;BMP180;9774;52.034;5.342;2023-03-25T06:01:36;99885.00;;;14.40
19282;BMP180;9774;52.034;5.342;2023-03-25T06:04:03;99895.00;;;14.40
19282;BMP180;9774;52.034;5.342;2023-03-25T06:06:35;99887.00;;;14.40
19282;BMP180;9774;52.034;5.342;2023-03-25T06:09:03;99893.00;;;14.50
19282;BMP180;9774;52.034;5.342;2023-03-25T06:11:31;99896.00;;;14.50
19282;BMP180;9774;52.034;5.342;2023-03-25T06:14:03;99896.00;;;14.50
19282;BMP180;9774;52.034;5.342;2023-03-25T06:16:31;99892.00;;;14.60
19282;BMP180;9774;52.034;5.342;2023-03-25T06:18:59;99898.00;;;14.60
19282;BMP180;9774;52.034;5.342;2023-03-25T06:21:28;99901.00;;;14.60
19282;BMP180;9774;52.034;5.342;2023-03-25T06:23:58;99894.00;;;14.60
19282;BMP180;9774;52.034;5.342;2023-03-25T06:26:28;99883.00;;;14.60
19282;BMP180;9774;52.034;5.342;2023-03-25T06:28:55;99882.00;;;14.70
19282;BMP180;9774;52.034;5.342;2023-03-25T06:31:24;99891.00;;;14.60
19282;BMP180;9774;52.034;5.342;2023-03-25T06:33:53;99897.00;;;14.70
19282;BMP180;9774;52.034;5.342;2023-03-25T06:36:21;99902.00;;;14.70
19282;BMP180;9774;52.034;5.342;2023-03-25T06:38:50;99904.00;;;14.70
19282;BMP180;9774;52.034;5.342;2023-03-25T06:41:18;99909.00;;;14.70
19282;BMP180;9774;52.034;5.342;2023-03-25T06:43:48;99909.00;;;14.70
19282;BMP180;9774;52.034;5.342;2023-03-25T06:46:15;99908.00;;;14.80
19282;BMP180;9774;52.034;5.342;2023-03-25T06:48:43;99915.00;;;14.80
19282;BMP180;9774;52.034;5.342;2023-03-25T06:51:10;99912.00;;;14.80
19282;BMP180;9774;52.034;5.342;2023-03-25T06:53:37;99906.00;;;14.80
19282;BMP180;9774;52.034;5.342;2023-03-25T06:56:05;99909.00;;;14.80
19282;BMP180;9774;52.034;5.342;2023-03-25T06:58:33;99916.00;;;14.80
19282;BMP180;9774;52.034;5.342;2023-03-25T07:01:02;99914.00;;;14.80
19282;BMP180;9774;52.034;5.342;2023-03-25T07:03:31;99925.00;;;14.80
19282;BMP180;9774;52.034;5.342;2023-03-25T07:05:59;99914.00;;;14.80
19282;BMP180;9774;52.034;5.342;2023-03-25T07:08:26;99915.00;;;14.80
19282;BMP180;9774;52.034;5.342;2023-03-25T07:11:00;99922.00;;;14.80
19282;BMP180;9774;52.034;5.342;2023-03-25T07:13:27;99915.00;;;14.80
19282;BMP180;9774;52.034;5.342;2023-03-25T07:15:56;99926.00;;;14.80
19282;BMP180;9774;52.034;5.342;2023-03-25T07:18:25;99921.00;;;14.90
19282;BMP180;9774;52.034;5.342;2023-03-25T07:20:52;99928.00;;;14.90
19282;BMP180;9774;52.034;5.342;2023-03-25T07:23:20;99929.00;;;14.90
19282;BMP180;9774;52.034;5.342;2023-03-25T07:25:47;99935.00;;;14.90
19282;BMP180;9774;52.034;5.342;2023-03-25T07:28:15;99930.00;;;14.90
19282;BMP180;9774;52.034;5.342;2023-03-25T07:30:42;99936.00;;;14.90
19282;BMP180;9774;52.034;5.342;2023-03-25T07:33:10;99937.00;;;14.90
19282;BMP180;9774;52.034;5.342;2023-03-25T07:35:38;99933.00;;;14.90
19282;BMP180;9774;52.034;5.342;2023-03-25T07:38:06;99931.00;;;14.90
19282;BMP180;9774;52.034;5.342;2023-03-25T07:40:34;99938.00;;;14.90
19282;BMP180;9774;52.034;5.342;2023-03-25T07:43:02;99929.00;;;15.00
19282;BMP180;9774;52.034;5.342;2023-03-25T07:45:29;99933.00;;;15.00
19282;BMP180;9774;52.034;5.342;2023-03-25T07:47:58;99937.00;;;15.00
19282;BMP180;9774;52.034;5.342;2023-03-25T07:50:26;99947.00;;;15.00
19282;BMP180;9774;52.034;5.342;2023-03-25T07:52:54;99947.00;;;15.00
19282;BMP180;9774;52.034;5.342;2023-03-25T07:55:22;99940.00;;;15.00
19282;BMP180;9774;52.034;5.342;2023-03-25T07:57:49;99947.00;;;15.10
19282;BMP180;9774;52.034;5.342;2023-03-25T08:00:16;99936.00;;;15.10
19282;BMP180;9774;52.034;5.342;2023-03-25T08:02:44;99936.00;;;15.10
19282;BMP180;9774;52.034;5.342;2023-03-25T08:05:11;99934.00;;;15.10
19282;BMP180;9774;52.034;5.342;2023-03-25T08:07:46;99934.00;;;15.10
19282;BMP180;9774;52.034;5.342;2023-03-25T08:10:15;99944.00;;;15.10
19282;BMP180;9774;52.034;5.342;2023-03-25T08:12:42;99953.00;;;15.10
19282;BMP180;9774;52.034;5.342;2023-03-25T08:15:11;99953.00;;;15.10
19282;BMP180;9774;52.034;5.342;2023-03-25T08:17:39;99949.00;;;15.10
19282;BMP180;9774;52.034;5.342;2023-03-25T08:20:07;99944.00;;;15.10
19282;BMP180;9774;52.034;5.342;2023-03-25T08:22:36;99961.00;;;15.20
19282;BMP180;9774;52.034;5.342;2023-03-25T08:25:04;99953.00;;;15.20
19282;BMP180;9774;52.034;5.342;2023-03-25T08:27:33;99953.00;;;15.20
19282;BMP180;9774;52.034;5.342;2023-03-25T08:30:00;99957.00;;;15.20
19282;BMP180;9774;52.034;5.342;2023-03-25T08:32:29;99965.00;;;15.20
19282;BMP180;9774;52.034;5.342;2023-03-25T08:34:57;99969.00;;;15.30
19282;BMP180;9774;52.034;5.342;2023-03-25T08:37:24;99965.00;;;15.30
19282;BMP180;9774;52.034;5.342;2023-03-25T08:39:51;99968.00;;;15.30
19282;BMP180;9774;52.034;5.342;2023-03-25T08:42:21;99968.00;;;15.40
19282;BMP180;9774;52.034;5.342;2023-03-25T08:44:50;99961.00;;;15.40
19282;BMP180;9774;52.034;5.342;2023-03-25T08:47:17;99964.00;;;15.50
19282;BMP180;9774;52.034;5.342;2023-03-25T08:49:45;99975.00;;;15.50
19282;BMP180;9774;52.034;5.342;2023-03-25T08:52:12;99977.00;;;15.50
19282;BMP180;9774;52.034;5.342;2023-03-25T08:54:41;99967.00;;;15.50
19282;BMP180;9774;52.034;5.342;2023-03-25T08:57:08;99975.00;;;15.50
19282;BMP180;9774;52.034;5.342;2023-03-25T08:59:35;99977.00;;;15.60
19282;BMP180;9774;52.034;5.342;2023-03-25T09:02:04;99972.00;;;15.60
19282;BMP180;9774;52.034;5.342;2023-03-25T09:04:32;99975.00;;;15.60
19282;BMP180;9774;52.034;5.342;2023-03-25T09:06:59;99979.00;;;15.70
19282;BMP180;9774;52.034;5.342;2023-03-25T09:09:26;99969.00;;;15.70
19282;BMP180;9774;52.034;5.342;2023-03-25T09:11:54;99982.00;;;15.70
19282;BMP180;9774;52.034;5.342;2023-03-25T09:14:22;99977.00;;;15.70
19282;BMP180;9774;52.034;5.342;2023-03-25T09:16:49;99975.00;;;15.80
19282;BMP180;9774;52.034;5.342;2023-03-25T09:19:18;99970.00;;;15.80
19282;BMP180;9774;52.034;5.342;2023-03-25T09:21:45;99978.00;;;15.80
19282;BMP180;9774;52.034;5.342;2023-03-25T09:24:12;99981.00;;;15.80
19282;BMP180;9774;52.034;5.342;2023-03-25T09:26:39;99982.00;;;15.80
19282;BMP180;9774;52.034;5.342;2023-03-25T09:29:07;99979.00;;;15.80
19282;BMP180;9774;52.034;5.342;2023-03-25T09:31:34;99993.00;;;15.80
19282;BMP180;9774;52.034;5.342;2023-03-25T09:34:02;99996.00;;;15.80
19282;BMP180;9774;52.034;5.342;2023-03-25T09:36:31;99993.00;;;15.70
19282;BMP180;9774;52.034;5.342;2023-03-25T09:38:59;99991.00;;;15.70
19282;BMP180;9774;52.034;5.342;2023-03-25T09:41:41;99998.00;;;15.70
19282;BMP180;9774;52.034;5.342;2023-03-25T09:44:16;99983.00;;;15.80
19282;BMP180;9774;52.034;5.342;2023-03-25T09:46:44;99989.00;;;15.80
19282;BMP180;9774;52.034;5.342;2023-03-25T09:49:15;99995.00;;;15.80
19282;BMP180;9774;52.034;5.342;2023-03-25T09:51:47;99993.00;;;15.80
19282;BMP180;9774;52.034;5.342;2023-03-25T09:54:22;99980.00;;;15.80
19282;BMP180;9774;52.034;5.342;2023-03-25T09:56:52;99986.00;;;15.80
19282;BMP180;9774;52.034;5.342;2023-03-25T09:59:22;99998.00;;;15.80
19282;BMP180;9774;52.034;5.342;2023-03-25T10:01:58;100000.00;;;15.70
19282;BMP180;9774;52.034;5.342;2023-03-25T10:04:46;99987.00;;;15.70
19282;BMP180;9774;52.034;5.342;2023-03-25T10:07:33;99999.00;;;15.80
19282;BMP180;9774;52.034;5.342;2023-03-25T10:10:10;99993.00;;;15.80
19282;BMP180;9774;52.034;5.342;2023-03-25T10:12:46;99998.00;;;15.90
19282;BMP180;9774;52.034;5.342;2023-03-25T10:15:26;100014.00;;;15.90
19282;BMP180;9774;52.034;5.342;2023-03-25T10:18:04;100006.00;;;16.00
19282;BMP180;9774;52.034;5.342;2023-03-25T10:20:50;100007.00;;;16.00
19282;BMP180;9774;52.034;5.342;2023-03-25T10:23:28;100007.00;;;16.10
19282;BMP180;9774;52.034;5.342;2023-03-25T10:26:02;100015.00;;;16.10
19282;BMP180;9774;52.034;5.342;2023-03-25T10:28:32;100013.00;;;16.10
19282;BMP180;9774;52.034;5.342;2023-03-25T10:31:02;100006.00;;;16.20
19282;BMP180;9774;52.034;5.342;2023-03-25T10:33:34;100004.00;;;16.20
19282;BMP180;9774;52.034;5.342;2023-03-25T10:36:02;100024.00;;;16.30
19282;BMP180;9774;52.034;5.342;2023-03-25T10:38:34;100016.00;;;16.30
19282;BMP180;9774;52.034;5.342;2023-03-25T10:41:10;100016.00;;;16.30
19282;BMP180;9774;52.034;5.342;2023-03-25T10:43:41;100026.00;;;16.40
19282;BMP180;9774;52.034;5.342;2023-03-25T10:46:15;100019.00;;;16.30
19282;BMP180;9774;52.034;5.342;2023-03-25T10:48:45;100014.00;;;16.40
19282;BMP180;9774;52.034;5.342;2023-03-25T10:51:15;100025.00;;;16.40
19282;BMP180;9774;52.034;5.342;2023-03-25T10:53:47;100023.00;;;16.40
19282;BMP180;9774;52.034;5.342;2023-03-25T10:56:16;100043.00;;;16.40
19282;BMP180;9774;52.034;5.342;2023-03-25T10:58:47;100031.00;;;16.40
19282;BMP180;9774;52.034;5.342;2023-03-25T11:01:17;100051.00;;;16.30
19282;BMP180;9774;52.034;5.342;2023-03-25T11:03:49;100042.00;;;16.30
19282;BMP180;9774;52.034;5.342;2023-03-25T11:06:22;100039.00;;;16.20
19282;BMP180;9774;52.034;5.342;2023-03-25T11:09:21;100057.00;;;16.20
19282;BMP180;9774;52.034;5.342;2023-03-25T11:11:49;100036.00;;;16.30
19282;BMP180;9774;52.034;5.342;2023-03-25T11:14:22;100048.00;;;16.20
19282;BMP180;9774;52.034;5.342;2023-03-25T11:16:54;100041.00;;;16.20
19282;BMP180;9774;52.034;5.342;2023-03-25T11:19:26;100053.00;;;16.30
19282;BMP180;9774;52.034;5.342;2023-03-25T11:21:57;100055.00;;;16.20
19282;BMP180;9774;52.034;5.342;2023-03-25T11:24:31;100067.00;;;16.30
19282;BMP180;9774;52.034;5.342;2023-03-25T11:26:59;100053.00;;;16.30
19282;BMP180;9774;52.034;5.342;2023-03-25T11:29:27;100060.00;;;16.40
19282;BMP180;9774;52.034;5.342;2023-03-25T11:32:03;100048.00;;;16.40
19282;BMP180;9774;52.034;5.342;2023-03-25T11:34:31;100050.00;;;16.60
19282;BMP180;9774;52.034;5.342;2023-03-25T11:37:01;100056.00;;;16.70
19282;BMP180;9774;52.034;5.342;2023-03-25T11:39:35;100049.00;;;16.70
19282;BMP180;9774;52.034;5.342;2023-03-25T11:42:13;100052.00;;;16.80
19282;BMP180;9774;52.034;5.342;2023-03-25T11:44:49;100062.00;;;16.80
19282;BMP180;9774;52.034;5.342;2023-03-25T11:47:20;100059.00;;;16.90
19282;BMP180;9774;52.034;5.342;2023-03-25T11:49:49;100043.00;;;16.90
19282;BMP180;9774;52.034;5.342;2023-03-25T11:52:21;100052.00;;;16.90
19282;BMP180;9774;52.034;5.342;2023-03-25T11:54:52;100070.00;;;16.90
19282;BMP180;9774;52.034;5.342;2023-03-25T11:57:23;100041.00;;;16.90
19282;BMP180;9774;52.034;5.342;2023-03-25T12:00:00;100056.00;;;16.90
19282;BMP180;9774;52.034;5.342;2023-03-25T12:02:37;100066.00;;;16.90
19282;BMP180;9774;52.034;5.342;2023-03-25T12:05:12;100050.00;;;17.00
19282;BMP180;9774;52.034;5.342;2023-03-25T12:07:41;100066.00;;;17.00
19282;BMP180;9774;52.034;5.342;2023-03-25T12:10:18;100062.00;;;17.00
19282;BMP180;9774;52.034;5.342;2023-03-25T12:12:52;100048.00;;;17.00
19282;BMP180;9774;52.034;5.342;2023-03-25T12:15:30;100059.00;;;17.00
19282;BMP180;9774;52.034;5.342;2023-03-25T12:18:08;100047.00;;;16.90
19282;BMP180;9774;52.034;5.342;2023-03-25T12:20:49;100046.00;;;16.90
19282;BMP180;9774;52.034;5.342;2023-03-25T12:23:27;100046.00;;;17.00
19282;BMP180;9774;52.034;5.342;2023-03-25T12:26:07;100046.00;;;17.00
19282;BMP180;9774;52.034;5.342;2023-03-25T12:28:46;100043.00;;;17.00
19282;BMP180;9774;52.034;5.342;2023-03-25T12:31:26;100051.00;;;17.10
19282;BMP180;9774;52.034;5.342;2023-03-25T12:34:08;100044.00;;;17.20
19282;BMP180;9774;52.034;5.342;2023-03-25T12:36:45;100045.00;;;17.20
19282;BMP180;9774;52.034;5.342;2023-03-25T12:39:31;100042.00;;;17.30
19282;BMP180;9774;52.034;5.342;2023-03-25T12:42:07;100055.00;;;17.30
19282;BMP180;9774;52.034;5.342;2023-03-25T12:44:47;100037.00;;;17.40
19282;BMP180;9774;52.034;5.342;2023-03-25T12:47:22;100044.00;;;17.50
19282;BMP180;9774;52.034;5.342;2023-03-25T12:50:07;100053.00;;;17.50
19282;BMP180;9774;52.034;5.342;2023-03-25T12:52:45;100047.00;;;17.60
19282;BMP180;9774;52.034;5.342;2023-03-25T12:55:29;100057.00;;;17.60
19282;BMP180;9774;52.034;5.342;2023-03-25T12:58:20;100056.00;;;17.70
19282;BMP180;9774;52.034;5.342;2023-03-25T13:00:55;100050.00;;;17.80
19282;BMP180;9774;52.034;5.342;2023-03-25T13:03:44;100053.00;;;17.90
19282;BMP180;9774;52.034;5.342;2023-03-25T13:06:21;100048.00;;;18.00
19282;BMP180;9774;52.034;5.342;2023-03-25T13:08:54;100056.00;;;18.00
19282;BMP180;9774;52.034;5.342;2023-03-25T13:11:27;100063.00;;;18.10
19282;BMP180;9774;52.034;5.342;2023-03-25T13:14:02;100055.00;;;18.20
19282;BMP180;9774;52.034;5.342;2023-03-25T13:16:32;100053.00;;;18.20
19282;BMP180;9774;52.034;5.342;2023-03-25T13:19:04;100068.00;;;18.30
19282;BMP180;9774;52.034;5.342;2023-03-25T13:21:35;100079.00;;;18.20
19282;BMP180;9774;52.034;5.342;2023-03-25T13:24:06;100064.00;;;18.20
19282;BMP180;9774;52.034;5.342;2023-03-25T13:26:39;100076.00;;;18.20
19282;BMP180;9774;52.034;5.342;2023-03-25T13:29:16;100064.00;;;18.20
19282;BMP180;9774;52.034;5.342;2023-03-25T13:31:47;100081.00;;;18.20
19282;BMP180;9774;52.034;5.342;2023-03-25T13:34:21;100085.00;;;18.10
19282;BMP180;9774;52.034;5.342;2023-03-25T13:36:57;100075.00;;;18.30
19282;BMP180;9774;52.034;5.342;2023-03-25T13:39:29;100081.00;;;18.80
19282;BMP180;9774;52.034;5.342;2023-03-25T13:42:04;100091.00;;;19.50
19282;BMP180;9774;52.034;5.342;2023-03-25T13:44:36;100102.00;;;20.20
19282;BMP180;9774;52.034;5.342;2023-03-25T13:47:14;100090.00;;;20.60
19282;BMP180;9774;52.034;5.342;2023-03-25T13:49:48;100102.00;;;21.00
19282;BMP180;9774;52.034;5.342;2023-03-25T13:52:17;100105.00;;;21.40
19282;BMP180;9774;52.034;5.342;2023-03-25T13:54:48;100080.00;;;21.90
19282;BMP180;9774;52.034;5.342;2023-03-25T13:57:33;100125.00;;;22.40
19282;BMP180;9774;52.034;5.342;2023-03-25T14:00:23;100099.00;;;22.20
19282;BMP180;9774;52.034;5.342;2023-03-25T14:03:19;100098.00;;;21.90
19282;BMP180;9774;52.034;5.342;2023-03-25T14:09:16;100122.00;;;21.20
19282;BMP180;9774;52.034;5.342;2023-03-25T14:11:49;100115.00;;;21.00
19282;BMP180;9774;52.034;5.342;2023-03-25T14:14:20;100156.00;;;20.40
19282;BMP180;9774;52.034;5.342;2023-03-25T14:16:52;100160.00;;;19.80
19282;BMP180;9774;52.034;5.342;2023-03-25T14:19:24;100135.00;;;19.40
19282;BMP180;9774;52.034;5.342;2023-03-25T14:21:53;100138.00;;;19.10
19282;BMP180;9774;52.034;5.342;2023-03-25T14:24:28;100135.00;;;19.00
19282;BMP180;9774;52.034;5.342;2023-03-25T14:27:00;100135.00;;;19.50
19282;BMP180;9774;52.034;5.342;2023-03-25T14:29:35;100134.00;;;20.00
19282;BMP180;9774;52.034;5.342;2023-03-25T14:34:49;100140.00;;;21.20
19282;BMP180;9774;52.034;5.342;2023-03-25T14:37:27;100144.00;;;22.00
19282;BMP180;9774;52.034;5.342;2023-03-25T14:39:58;100145.00;;;22.80
19282;BMP180;9774;52.034;5.342;2023-03-25T14:42:29;100147.00;;;22.90
19282;BMP180;9774;52.034;5.342;2023-03-25T14:47:58;100152.00;;;22.90
19282;BMP180;9774;52.034;5.342;2023-03-25T14:50:30;100140.00;;;23.00
19282;BMP180;9774;52.034;5.342;2023-03-25T14:53:02;100153.00;;;23.30
19282;BMP180;9774;52.034;5.342;2023-03-25T14:55:33;100152.00;;;23.30